Arp, TX

7:43 AM CDT on April 25, 2015 (GMT -0500)
Hwy 64 East Arp-Turnertown | | Change Station
CLOSE
Current Station
Personal Weather Station
Location: Troup, TX
Elevation: 499 ft
Nearby Weather Stations
Active Advisory: Lake Wind Advisory

Elev 499 ft 32.21 °N, 95.01 °W | Updated 7 seconds ago

Overcast
Overcast
70.7 °F
Feels Like 70.7 °F
N
0.0
Wind Variable Wind from SW
Gusts 2.7 mph

Today
High -- | Low -- °F
--% Chance of Precip.
Yesterday
High -- | Low -- °F
Precip. -- in
6:40 AM 7:56 PM
Waxing Crescent, 45% visible
Pressure 29.76 in
Visibility 4.0 miles
Clouds Scattered Clouds 500 ft
Scattered Clouds 1500 ft
Scattered Clouds 2000 ft
Dew Point 68 °F
Humidity 91%
Rainfall 0.02 in
Snow Depth Not available.
UV 0 out of 12
Pollen 5.40 out of 12
Air Quality Not available.
Flu Activity Local Activity
METAR KRFI 251235Z AUTO 22005KT 4SM SCT005 SCT015 SCT020 23/22 A2976 RMK AO2 T02250223

More Conditions Fewer Conditions

Pressure 29.76 in
Visibility 4.0 miles
Clouds Scattered Clouds 500 ft
Scattered Clouds 1500 ft
Scattered Clouds 2000 ft
Dew Point 68 °F
Humidity 91%
Rainfall 0.02 in
Snow Depth Not available.
UV 0 out of 12
Pollen 5.40 out of 12
Air Quality Not available.
Flu Activity Local Activity
METAR KRFI 251235Z AUTO 22005KT 4SM SCT005 SCT015 SCT020 23/22 A2976 RMK AO2 T02250223

More Conditions Fewer Conditions

10-Day Weather Forecast

Almanac

Astronomy

Apr. 25, 2015 Rise Set
Actual Time
Civil Twilight
Nautical Twilight
Astronomical Twilight
Moon
Length of Visible Light
Length of Day
Tomorrow will be .
, % of the Moon is Illuminated

Today's Extremes

State Highs State Lows

Community

WunderPhotos

Upload Photos

1,816,649 photos uploaded!

WunderBlogs® & News

Nearby

Air Quality

  Air Quality AQ Index Pollutant
Not available.

Snow Depth

Station Depth Elevation

Earthquake Activity

City Distance Mag. Time & Date
Minimum magnitude displayed is 2.5.

Coastal Water Temperatures

Place Temperature

Stations

Nearby Weather Stations

Station Location Temp. Windchill Dew Point Humidity Wind Precip. Elev Updated Type
                   
Lake Wind Advisory
Statement as of 4:31 AM CDT on April 25, 2015

... Lake Wind Advisory in effect from 9 am this morning to 7 PM
CDT this evening... for the four state region.

The National Weather Service in Shreveport has issued a lake Wind
Advisory... which is in effect from 9 am this morning to 7 PM CDT
this evening.

* Event... a tight pressure gradient associated with a surface low
pressure system moving across the plains toward the Tennessee
and Ohio valleys will produce strong and gusty winds of 15-20
mph with higher gusts to 25-30 mph.

* Timing... from 9 am to 7 PM CDT today.

* Impact... a rough chop may cause hazardous boating conditions on
area lakes and open waters.

Precautionary/preparedness actions...

A lake Wind Advisory indicates that winds will cause rough chop
on area lakes. Small boats will be especially prone to capsizing
after taking on water in the rough conditions.



06